sensor_id;sensor_type;location;lat;lon;timestamp;pressure;altitude;pressure_sealevel;temperature;humidity
43503;BME280;29098;48.184;16.298;2023-11-18T00:00:20;99757.41;;;4.60;82.86
43503;BME280;29098;48.184;16.298;2023-11-18T00:02:45;99740.22;;;4.57;83.18
43503;BME280;29098;48.184;16.298;2023-11-18T00:05:12;99727.28;;;4.46;82.90
43503;BME280;29098;48.184;16.298;2023-11-18T00:07:39;99730.88;;;4.64;82.47
43503;BME280;29098;48.184;16.298;2023-11-18T00:10:05;99732.78;;;4.52;82.58
43503;BME280;29098;48.184;16.298;2023-11-18T00:12:32;99755.34;;;4.63;82.30
43503;BME280;29098;48.184;16.298;2023-11-18T00:15:01;99748.78;;;4.79;82.27
43503;BME280;29098;48.184;16.298;2023-11-18T00:17:31;99729.25;;;4.63;82.04
43503;BME280;29098;48.184;16.298;2023-11-18T00:19:57;99740.06;;;4.49;82.74
43503;BME280;29098;48.184;16.298;2023-11-18T00:22:23;99704.06;;;4.11;83.47
43503;BME280;29098;48.184;16.298;2023-11-18T00:24:48;99778.13;;;4.51;82.94
43503;BME280;29098;48.184;16.298;2023-11-18T00:27:14;99756.13;;;4.44;83.45
43503;BME280;29098;48.184;16.298;2023-11-18T00:29:41;99754.19;;;4.36;83.47
43503;BME280;29098;48.184;16.298;2023-11-18T00:32:07;99759.97;;;4.40;82.92
43503;BME280;29098;48.184;16.298;2023-11-18T00:34:33;99732.16;;;4.29;83.13
43503;BME280;29098;48.184;16.298;2023-11-18T00:36:59;99777.31;;;4.51;81.95
43503;BME280;29098;48.184;16.298;2023-11-18T00:39:25;99762.41;;;4.32;82.54
43503;BME280;29098;48.184;16.298;2023-11-18T00:41:52;99777.78;;;4.35;82.35
43503;BME280;29098;48.184;16.298;2023-11-18T00:44:18;99755.25;;;4.34;82.09
43503;BME280;29098;48.184;16.298;2023-11-18T00:46:44;99739.66;;;4.22;82.94
43503;BME280;29098;48.184;16.298;2023-11-18T00:49:09;99789.59;;;4.29;82.82
43503;BME280;29098;48.184;16.298;2023-11-18T00:51:37;99779.34;;;4.16;83.00
43503;BME280;29098;48.184;16.298;2023-11-18T00:54:03;99774.72;;;4.20;83.51
43503;BME280;29098;48.184;16.298;2023-11-18T00:56:31;99786.25;;;4.27;83.43
43503;BME280;29098;48.184;16.298;2023-11-18T00:58:57;99740.25;;;4.26;83.37
43503;BME280;29098;48.184;16.298;2023-11-18T01:01:23;99760.81;;;4.19;83.61
43503;BME280;29098;48.184;16.298;2023-11-18T01:03:48;99784.03;;;4.22;83.48
43503;BME280;29098;48.184;16.298;2023-11-18T01:06:14;99754.34;;;4.14;83.75
43503;BME280;29098;48.184;16.298;2023-11-18T01:08:46;99773.34;;;4.25;83.96
43503;BME280;29098;48.184;16.298;2023-11-18T01:11:18;99756.69;;;4.17;82.83
43503;BME280;29098;48.184;16.298;2023-11-18T01:13:48;99758.09;;;4.00;83.81
43503;BME280;29098;48.184;16.298;2023-11-18T01:16:13;99781.72;;;3.98;84.05
43503;BME280;29098;48.184;16.298;2023-11-18T01:18:40;99794.19;;;3.94;84.19
43503;BME280;29098;48.184;16.298;2023-11-18T01:21:06;99794.44;;;4.13;84.13
43503;BME280;29098;48.184;16.298;2023-11-18T01:23:35;99795.47;;;4.00;84.34
43503;BME280;29098;48.184;16.298;2023-11-18T01:26:01;99793.94;;;3.97;84.01
43503;BME280;29098;48.184;16.298;2023-11-18T01:28:33;99809.19;;;4.02;84.22
43503;BME280;29098;48.184;16.298;2023-11-18T01:31:03;99791.59;;;3.94;84.09
43503;BME280;29098;48.184;16.298;2023-11-18T01:33:29;99767.09;;;3.86;84.71
43503;BME280;29098;48.184;16.298;2023-11-18T01:35:55;99809.66;;;4.07;84.15
43503;BME280;29098;48.184;16.298;2023-11-18T01:38:20;99800.31;;;3.83;84.90
43503;BME280;29098;48.184;16.298;2023-11-18T01:40:46;99820.19;;;3.84;85.31
43503;BME280;29098;48.184;16.298;2023-11-18T01:43:12;99805.00;;;3.90;84.71
43503;BME280;29098;48.184;16.298;2023-11-18T01:45:40;99787.25;;;4.05;84.13
43503;BME280;29098;48.184;16.298;2023-11-18T01:48:06;99792.28;;;3.96;83.38
43503;BME280;29098;48.184;16.298;2023-11-18T01:50:35;99827.13;;;4.17;83.82
43503;BME280;29098;48.184;16.298;2023-11-18T01:53:03;99816.78;;;4.05;83.55
43503;BME280;29098;48.184;16.298;2023-11-18T01:55:29;99822.31;;;4.12;83.37
43503;BME280;29098;48.184;16.298;2023-11-18T01:57:55;99813.63;;;4.11;83.53
43503;BME280;29098;48.184;16.298;2023-11-18T02:00:22;99805.97;;;4.10;83.46
43503;BME280;29098;48.184;16.298;2023-11-18T02:02:48;99823.19;;;4.01;83.58
43503;BME280;29098;48.184;16.298;2023-11-18T02:05:15;99794.63;;;4.00;83.28
43503;BME280;29098;48.184;16.298;2023-11-18T02:07:42;99811.88;;;4.12;83.44
43503;BME280;29098;48.184;16.298;2023-11-18T02:10:09;99816.91;;;4.04;84.16
43503;BME280;29098;48.184;16.298;2023-11-18T02:12:51;99826.69;;;4.11;83.51
43503;BME280;29098;48.184;16.298;2023-11-18T02:15:22;99853.13;;;3.97;83.60
43503;BME280;29098;48.184;16.298;2023-11-18T02:17:49;99849.41;;;4.00;83.66
43503;BME280;29098;48.184;16.298;2023-11-18T02:20:16;99848.59;;;3.99;84.10
43503;BME280;29098;48.184;16.298;2023-11-18T02:22:46;99771.66;;;3.72;84.28
43503;BME280;29098;48.184;16.298;2023-11-18T02:25:18;99805.50;;;3.83;83.47
43503;BME280;29098;48.184;16.298;2023-11-18T02:27:44;99827.63;;;3.68;83.84
43503;BME280;29098;48.184;16.298;2023-11-18T02:30:11;99800.28;;;3.62;83.47
43503;BME280;29098;48.184;16.298;2023-11-18T02:32:54;99841.75;;;3.87;83.67
43503;BME280;29098;48.184;16.298;2023-11-18T02:35:34;99859.66;;;3.91;83.69
43503;BME280;29098;48.184;16.298;2023-11-18T02:38:03;99818.34;;;3.75;83.55
43503;BME280;29098;48.184;16.298;2023-11-18T02:40:36;99838.47;;;3.84;83.41
43503;BME280;29098;48.184;16.298;2023-11-18T02:43:04;99826.03;;;3.77;84.04
43503;BME280;29098;48.184;16.298;2023-11-18T02:45:31;99853.28;;;3.84;83.31
43503;BME280;29098;48.184;16.298;2023-11-18T02:47:57;99870.91;;;3.92;84.10
43503;BME280;29098;48.184;16.298;2023-11-18T02:50:27;99847.31;;;3.93;83.56
43503;BME280;29098;48.184;16.298;2023-11-18T02:52:56;99861.44;;;3.91;83.34
43503;BME280;29098;48.184;16.298;2023-11-18T02:55:21;99862.59;;;3.98;83.86
43503;BME280;29098;48.184;16.298;2023-11-18T02:57:48;99868.00;;;4.06;83.21
43503;BME280;29098;48.184;16.298;2023-11-18T03:00:15;99854.81;;;4.08;82.89
43503;BME280;29098;48.184;16.298;2023-11-18T03:02:47;99814.72;;;3.88;82.70
43503;BME280;29098;48.184;16.298;2023-11-18T03:05:13;99857.81;;;4.03;82.72
43503;BME280;29098;48.184;16.298;2023-11-18T03:07:47;99840.25;;;4.05;82.93
43503;BME280;29098;48.184;16.298;2023-11-18T03:10:16;99813.16;;;3.96;82.75
43503;BME280;29098;48.184;16.298;2023-11-18T03:12:51;99827.25;;;3.94;82.42
43503;BME280;29098;48.184;16.298;2023-11-18T03:15:21;99823.38;;;3.88;82.88
43503;BME280;29098;48.184;16.298;2023-11-18T03:17:48;99866.66;;;4.12;82.93
43503;BME280;29098;48.184;16.298;2023-11-18T03:20:18;99870.31;;;4.21;82.60
43503;BME280;29098;48.184;16.298;2023-11-18T03:22:47;99842.16;;;4.03;82.76
43503;BME280;29098;48.184;16.298;2023-11-18T03:25:13;99822.56;;;3.88;83.00
43503;BME280;29098;48.184;16.298;2023-11-18T03:27:39;99857.19;;;3.90;82.73
43503;BME280;29098;48.184;16.298;2023-11-18T03:30:06;99841.06;;;4.06;82.56
43503;BME280;29098;48.184;16.298;2023-11-18T03:32:32;99854.00;;;4.07;82.79
43503;BME280;29098;48.184;16.298;2023-11-18T03:34:58;99873.88;;;4.20;82.53
43503;BME280;29098;48.184;16.298;2023-11-18T03:37:26;99836.88;;;4.15;82.05
43503;BME280;29098;48.184;16.298;2023-11-18T03:39:52;99865.59;;;4.15;82.44
43503;BME280;29098;48.184;16.298;2023-11-18T03:42:18;99829.75;;;3.95;82.55
43503;BME280;29098;48.184;16.298;2023-11-18T03:44:44;99855.19;;;4.03;82.64
43503;BME280;29098;48.184;16.298;2023-11-18T03:47:16;99848.41;;;3.91;82.67
43503;BME280;29098;48.184;16.298;2023-11-18T03:49:41;99882.13;;;4.04;82.85
43503;BME280;29098;48.184;16.298;2023-11-18T03:52:07;99853.94;;;3.97;82.95
43503;BME280;29098;48.184;16.298;2023-11-18T03:54:33;99874.09;;;4.17;82.43
43503;BME280;29098;48.184;16.298;2023-11-18T03:56:58;99824.78;;;3.92;82.59
43503;BME280;29098;48.184;16.298;2023-11-18T03:59:25;99854.69;;;3.88;83.34
43503;BME280;29098;48.184;16.298;2023-11-18T04:01:51;99873.06;;;4.08;83.19
43503;BME280;29098;48.184;16.298;2023-11-18T04:04:17;99838.84;;;3.80;83.46
43503;BME280;29098;48.184;16.298;2023-11-18T04:06:43;99863.88;;;3.71;84.23
43503;BME280;29098;48.184;16.298;2023-11-18T04:09:09;99869.75;;;3.84;84.12
43503;BME280;29098;48.184;16.298;2023-11-18T04:11:36;99883.00;;;3.93;84.16
43503;BME280;29098;48.184;16.298;2023-11-18T04:14:01;99850.81;;;3.82;84.59
43503;BME280;29098;48.184;16.298;2023-11-18T04:16:28;99856.91;;;3.93;84.25
43503;BME280;29098;48.184;16.298;2023-11-18T04:18:54;99841.44;;;3.80;84.14
43503;BME280;29098;48.184;16.298;2023-11-18T04:21:21;99890.63;;;3.84;84.84
43503;BME280;29098;48.184;16.298;2023-11-18T04:23:46;99875.19;;;3.93;84.60
43503;BME280;29098;48.184;16.298;2023-11-18T04:26:12;99902.69;;;3.97;84.40
43503;BME280;29098;48.184;16.298;2023-11-18T04:28:38;99857.75;;;3.93;84.24
43503;BME280;29098;48.184;16.298;2023-11-18T04:31:04;99907.00;;;4.08;84.14
43503;BME280;29098;48.184;16.298;2023-11-18T04:33:32;99889.13;;;4.03;84.16
43503;BME280;29098;48.184;16.298;2023-11-18T04:35:58;99868.53;;;3.89;84.48
43503;BME280;29098;48.184;16.298;2023-11-18T04:38:25;99907.47;;;4.13;84.01
43503;BME280;29098;48.184;16.298;2023-11-18T04:40:54;99916.56;;;4.19;83.20
43503;BME280;29098;48.184;16.298;2023-11-18T04:43:21;99906.94;;;3.98;83.11
43503;BME280;29098;48.184;16.298;2023-11-18T04:45:47;99911.78;;;4.03;83.33
43503;BME280;29098;48.184;16.298;2023-11-18T04:48:13;99924.06;;;4.12;83.13
43503;BME280;29098;48.184;16.298;2023-11-18T04:50:42;99896.25;;;4.01;82.77
43503;BME280;29098;48.184;16.298;2023-11-18T04:53:07;99916.31;;;4.22;82.66
43503;BME280;29098;48.184;16.298;2023-11-18T04:55:35;99910.16;;;4.23;82.76
43503;BME280;29098;48.184;16.298;2023-11-18T04:58:01;99906.56;;;4.24;82.70
43503;BME280;29098;48.184;16.298;2023-11-18T05:00:27;99870.84;;;4.03;82.84
43503;BME280;29098;48.184;16.298;2023-11-18T05:02:54;99921.28;;;4.25;82.51
43503;BME280;29098;48.184;16.298;2023-11-18T05:05:19;99917.31;;;4.31;82.43
43503;BME280;29098;48.184;16.298;2023-11-18T05:07:45;99895.53;;;4.32;81.43
43503;BME280;29098;48.184;16.298;2023-11-18T05:10:11;99897.78;;;4.25;81.22
43503;BME280;29098;48.184;16.298;2023-11-18T05:12:40;99924.66;;;4.37;81.00
43503;BME280;29098;48.184;16.298;2023-11-18T05:15:06;99892.34;;;4.28;80.83
43503;BME280;29098;48.184;16.298;2023-11-18T05:17:39;99929.44;;;4.32;81.31
43503;BME280;29098;48.184;16.298;2023-11-18T05:20:05;99929.19;;;4.35;80.74
43503;BME280;29098;48.184;16.298;2023-11-18T05:22:34;99913.97;;;4.40;81.17
43503;BME280;29098;48.184;16.298;2023-11-18T05:25:02;99922.63;;;4.41;81.26
43503;BME280;29098;48.184;16.298;2023-11-18T05:27:30;99932.81;;;4.44;81.45
43503;BME280;29098;48.184;16.298;2023-11-18T05:29:57;99918.31;;;4.51;81.49
43503;BME280;29098;48.184;16.298;2023-11-18T05:32:27;99932.81;;;4.44;81.42
43503;BME280;29098;48.184;16.298;2023-11-18T05:34:52;99895.28;;;4.23;82.25
43503;BME280;29098;48.184;16.298;2023-11-18T05:37:21;99941.84;;;4.39;81.78
43503;BME280;29098;48.184;16.298;2023-11-18T05:39:47;99948.53;;;4.32;82.20
43503;BME280;29098;48.184;16.298;2023-11-18T05:42:14;99900.13;;;4.07;81.81
43503;BME280;29098;48.184;16.298;2023-11-18T05:44:41;99952.38;;;4.28;82.67
43503;BME280;29098;48.184;16.298;2023-11-18T05:47:08;99951.91;;;4.23;82.61
43503;BME280;29098;48.184;16.298;2023-11-18T05:49:37;99965.41;;;4.28;82.63
43503;BME280;29098;48.184;16.298;2023-11-18T05:52:04;99966.22;;;4.29;83.25
43503;BME280;29098;48.184;16.298;2023-11-18T05:54:30;99945.13;;;4.32;83.03
43503;BME280;29098;48.184;16.298;2023-11-18T05:56:56;99974.84;;;4.41;82.23
43503;BME280;29098;48.184;16.298;2023-11-18T05:59:21;99971.72;;;4.47;81.88
43503;BME280;29098;48.184;16.298;2023-11-18T06:01:49;99982.47;;;4.32;82.44
43503;BME280;29098;48.184;16.298;2023-11-18T06:04:14;99988.53;;;4.33;82.66
43503;BME280;29098;48.184;16.298;2023-11-18T06:06:41;99937.19;;;4.22;82.39
43503;BME280;29098;48.184;16.298;2023-11-18T06:09:06;99964.31;;;4.31;82.73
43503;BME280;29098;48.184;16.298;2023-11-18T06:11:40;99984.38;;;4.30;83.19
43503;BME280;29098;48.184;16.298;2023-11-18T06:14:06;99995.41;;;4.34;82.66
43503;BME280;29098;48.184;16.298;2023-11-18T06:16:33;99964.25;;;4.21;82.34
43503;BME280;29098;48.184;16.298;2023-11-18T06:19:01;100006.66;;;4.34;82.49
43503;BME280;29098;48.184;16.298;2023-11-18T06:21:30;100009.41;;;4.33;82.06
43503;BME280;29098;48.184;16.298;2023-11-18T06:23:57;100006.06;;;4.31;82.68
43503;BME280;29098;48.184;16.298;2023-11-18T06:26:23;100028.88;;;4.29;82.16
43503;BME280;29098;48.184;16.298;2023-11-18T06:28:53;100011.47;;;4.18;82.43
43503;BME280;29098;48.184;16.298;2023-11-18T06:31:20;100048.94;;;4.28;82.46
43503;BME280;29098;48.184;16.298;2023-11-18T06:33:47;100031.75;;;4.25;83.00
43503;BME280;29098;48.184;16.298;2023-11-18T06:38:52;100024.50;;;4.18;83.06
43503;BME280;29098;48.184;16.298;2023-11-18T06:41:20;100067.66;;;4.33;83.17
43503;BME280;29098;48.184;16.298;2023-11-18T06:43:48;100053.56;;;4.24;83.07
43503;BME280;29098;48.184;16.298;2023-11-18T06:46:21;100055.81;;;4.18;83.33
43503;BME280;29098;48.184;16.298;2023-11-18T06:48:53;100043.16;;;4.13;83.78
43503;BME280;29098;48.184;16.298;2023-11-18T06:51:24;100064.88;;;4.14;83.47
43503;BME280;29098;48.184;16.298;2023-11-18T06:53:50;100044.91;;;4.24;83.10
43503;BME280;29098;48.184;16.298;2023-11-18T06:56:17;100044.09;;;4.12;83.06
43503;BME280;29098;48.184;16.298;2023-11-18T06:58:42;100071.00;;;4.35;82.96
43503;BME280;29098;48.184;16.298;2023-11-18T07:01:11;100043.03;;;4.15;83.43
43503;BME280;29098;48.184;16.298;2023-11-18T07:03:39;100046.53;;;4.36;84.29
43503;BME280;29098;48.184;16.298;2023-11-18T07:06:06;100080.69;;;4.45;82.82
43503;BME280;29098;48.184;16.298;2023-11-18T07:08:32;100053.41;;;4.37;82.11
43503;BME280;29098;48.184;16.298;2023-11-18T07:11:00;100089.31;;;4.45;82.08
43503;BME280;29098;48.184;16.298;2023-11-18T07:13:27;100108.44;;;4.46;81.84
43503;BME280;29098;48.184;16.298;2023-11-18T07:15:53;100075.94;;;4.38;82.04
43503;BME280;29098;48.184;16.298;2023-11-18T07:18:22;100072.13;;;4.43;82.02
43503;BME280;29098;48.184;16.298;2023-11-18T07:20:50;100073.81;;;4.32;81.73
43503;BME280;29098;48.184;16.298;2023-11-18T07:23:19;100089.00;;;4.38;81.50
43503;BME280;29098;48.184;16.298;2023-11-18T07:25:45;100087.78;;;4.43;82.06
43503;BME280;29098;48.184;16.298;2023-11-18T07:28:12;100052.53;;;4.48;82.06
43503;BME280;29098;48.184;16.298;2023-11-18T07:30:42;100074.13;;;4.50;80.84
43503;BME280;29098;48.184;16.298;2023-11-18T07:33:08;100085.28;;;4.52;80.90
43503;BME280;29098;48.184;16.298;2023-11-18T07:35:34;100092.03;;;4.55;81.51
43503;BME280;29098;48.184;16.298;2023-11-18T07:38:02;100071.63;;;4.49;81.42
43503;BME280;29098;48.184;16.298;2023-11-18T07:40:28;100081.50;;;4.78;83.24
43503;BME280;29098;48.184;16.298;2023-11-18T07:42:54;100130.84;;;4.92;82.59
43503;BME280;29098;48.184;16.298;2023-11-18T07:45:21;100108.22;;;5.03;81.58
43503;BME280;29098;48.184;16.298;2023-11-18T07:47:49;100069.09;;;4.70;80.13
43503;BME280;29098;48.184;16.298;2023-11-18T07:50:17;100129.38;;;4.78;80.71
43503;BME280;29098;48.184;16.298;2023-11-18T07:52:45;100113.81;;;4.77;80.21
43503;BME280;29098;48.184;16.298;2023-11-18T07:55:11;100097.72;;;4.60;81.33
43503;BME280;29098;48.184;16.298;2023-11-18T07:57:37;100124.63;;;4.72;81.12
43503;BME280;29098;48.184;16.298;2023-11-18T08:00:03;100099.84;;;4.66;81.20
43503;BME280;29098;48.184;16.298;2023-11-18T08:02:38;100107.50;;;4.47;81.33
43503;BME280;29098;48.184;16.298;2023-11-18T08:05:04;100120.88;;;4.53;81.85
43503;BME280;29098;48.184;16.298;2023-11-18T08:07:34;100139.38;;;4.62;81.47
43503;BME280;29098;48.184;16.298;2023-11-18T08:10:01;100124.28;;;4.65;82.00
43503;BME280;29098;48.184;16.298;2023-11-18T08:12:29;100110.53;;;4.63;82.19
43503;BME280;29098;48.184;16.298;2023-11-18T08:15:02;100088.72;;;4.53;82.60
43503;BME280;29098;48.184;16.298;2023-11-18T08:17:35;100137.09;;;4.69;82.77
43503;BME280;29098;48.184;16.298;2023-11-18T08:20:02;100080.19;;;4.51;81.94
43503;BME280;29098;48.184;16.298;2023-11-18T08:22:40;100140.41;;;4.71;82.44
43503;BME280;29098;48.184;16.298;2023-11-18T08:25:09;100098.69;;;4.59;82.53
43503;BME280;29098;48.184;16.298;2023-11-18T08:27:35;100095.13;;;4.60;82.21
43503;BME280;29098;48.184;16.298;2023-11-18T08:30:01;100124.50;;;4.74;82.13
43503;BME280;29098;48.184;16.298;2023-11-18T08:32:31;100136.47;;;4.76;82.12
43503;BME280;29098;48.184;16.298;2023-11-18T08:34:57;100124.03;;;4.69;81.89
43503;BME280;29098;48.184;16.298;2023-11-18T08:37:22;100145.63;;;4.71;82.07
43503;BME280;29098;48.184;16.298;2023-11-18T08:39:48;100157.47;;;4.86;81.72
43503;BME280;29098;48.184;16.298;2023-11-18T08:42:14;100103.72;;;4.72;81.40
43503;BME280;29098;48.184;16.298;2023-11-18T08:44:42;100101.00;;;4.74;81.73
43503;BME280;29098;48.184;16.298;2023-11-18T08:47:15;100127.34;;;4.71;82.18
43503;BME280;29098;48.184;16.298;2023-11-18T08:49:43;100159.59;;;4.92;82.00
43503;BME280;29098;48.184;16.298;2023-11-18T08:52:12;100112.00;;;4.77;82.26
43503;BME280;29098;48.184;16.298;2023-11-18T08:54:38;100125.66;;;4.81;81.64
43503;BME280;29098;48.184;16.298;2023-11-18T08:57:24;100117.47;;;4.86;81.76
43503;BME280;29098;48.184;16.298;2023-11-18T08:59:51;100107.88;;;4.75;82.19
43503;BME280;29098;48.184;16.298;2023-11-18T09:02:20;100106.78;;;4.77;81.72
43503;BME280;29098;48.184;16.298;2023-11-18T09:04:52;100129.41;;;4.88;82.64
43503;BME280;29098;48.184;16.298;2023-11-18T09:07:24;100152.41;;;5.06;82.53
43503;BME280;29098;48.184;16.298;2023-11-18T09:09:51;100123.50;;;5.07;81.89
43503;BME280;29098;48.184;16.298;2023-11-18T09:12:18;100136.09;;;5.14;82.13
43503;BME280;29098;48.184;16.298;2023-11-18T09:14:44;100154.25;;;5.37;81.43
43503;BME280;29098;48.184;16.298;2023-11-18T09:17:13;100125.00;;;5.43;80.80
43503;BME280;29098;48.184;16.298;2023-11-18T09:19:40;100148.09;;;5.59;80.85
43503;BME280;29098;48.184;16.298;2023-11-18T09:22:05;100139.31;;;5.48;80.51
43503;BME280;29098;48.184;16.298;2023-11-18T09:24:32;100142.13;;;5.57;80.46
43503;BME280;29098;48.184;16.298;2023-11-18T09:26:58;100147.25;;;5.58;80.25
43503;BME280;29098;48.184;16.298;2023-11-18T09:29:24;100145.53;;;5.47;79.81
43503;BME280;29098;48.184;16.298;2023-11-18T09:31:50;100146.84;;;5.63;79.96
43503;BME280;29098;48.184;16.298;2023-11-18T09:34:24;100141.63;;;5.63;79.86
43503;BME280;29098;48.184;16.298;2023-11-18T09:36:58;100146.16;;;5.61;79.89
43503;BME280;29098;48.184;16.298;2023-11-18T09:39:24;100164.72;;;5.89;78.94
43503;BME280;29098;48.184;16.298;2023-11-18T09:42:03;100151.75;;;5.78;79.36
43503;BME280;29098;48.184;16.298;2023-11-18T09:44:29;100140.25;;;5.90;79.26
43503;BME280;29098;48.184;16.298;2023-11-18T09:46:57;100138.53;;;5.79;78.79
43503;BME280;29098;48.184;16.298;2023-11-18T09:49:32;100161.38;;;5.77;79.07
43503;BME280;29098;48.184;16.298;2023-11-18T09:52:05;100162.47;;;5.74;78.68
43503;BME280;29098;48.184;16.298;2023-11-18T09:54:54;100147.91;;;5.82;79.71
43503;BME280;29098;48.184;16.298;2023-11-18T09:57:31;100148.78;;;5.92;79.20
43503;BME280;29098;48.184;16.298;2023-11-18T10:00:07;100156.59;;;5.82;80.11
43503;BME280;29098;48.184;16.298;2023-11-18T10:02:45;100172.28;;;5.82;80.25
43503;BME280;29098;48.184;16.298;2023-11-18T10:05:12;100164.72;;;5.89;80.09
43503;BME280;29098;48.184;16.298;2023-11-18T10:07:42;100123.06;;;5.66;80.51
43503;BME280;29098;48.184;16.298;2023-11-18T10:10:10;100150.78;;;5.79;81.00
43503;BME280;29098;48.184;16.298;2023-11-18T10:12:46;100128.28;;;5.66;80.83
43503;BME280;29098;48.184;16.298;2023-11-18T10:15:17;100146.59;;;5.97;80.89
43503;BME280;29098;48.184;16.298;2023-11-18T10:17:44;100156.72;;;6.02;79.82
43503;BME280;29098;48.184;16.298;2023-11-18T10:20:45;100123.31;;;5.94;80.47
43503;BME280;29098;48.184;16.298;2023-11-18T10:23:16;100132.97;;;5.94;80.15
43503;BME280;29098;48.184;16.298;2023-11-18T10:25:55;100131.91;;;6.06;79.53
43503;BME280;29098;48.184;16.298;2023-11-18T10:28:31;100136.47;;;6.04;79.38
43503;BME280;29098;48.184;16.298;2023-11-18T10:31:10;100151.28;;;5.94;79.72
43503;BME280;29098;48.184;16.298;2023-11-18T10:33:49;100148.78;;;5.92;79.61
43503;BME280;29098;48.184;16.298;2023-11-18T10:36:20;100166.25;;;5.82;80.25
43503;BME280;29098;48.184;16.298;2023-11-18T10:38:51;100155.16;;;5.99;80.32
43503;BME280;29098;48.184;16.298;2023-11-18T10:41:21;100128.28;;;5.66;80.52
43503;BME280;29098;48.184;16.298;2023-11-18T10:43:47;100139.00;;;5.63;80.32
43503;BME280;29098;48.184;16.298;2023-11-18T10:46:16;100159.16;;;5.72;80.69
43503;BME280;29098;48.184;16.298;2023-11-18T10:48:43;100153.19;;;5.92;81.09
43503;BME280;29098;48.184;16.298;2023-11-18T10:51:17;100115.56;;;5.93;80.40
43503;BME280;29098;48.184;16.298;2023-11-18T10:53:48;100154.81;;;5.83;80.25
43503;BME280;29098;48.184;16.298;2023-11-18T10:56:29;100150.78;;;5.79;80.53
43503;BME280;29098;48.184;16.298;2023-11-18T10:59:04;100137.41;;;5.72;80.66
43503;BME280;29098;48.184;16.298;2023-11-18T11:01:38;100113.75;;;5.83;80.74
43503;BME280;29098;48.184;16.298;2023-11-18T11:04:08;100141.00;;;6.02;79.50
43503;BME280;29098;48.184;16.298;2023-11-18T11:06:45;100125.72;;;6.07;79.64
43503;BME280;29098;48.184;16.298;2023-11-18T11:09:25;100105.50;;;5.78;79.68
43503;BME280;29098;48.184;16.298;2023-11-18T11:11:56;100127.00;;;5.82;80.42
43503;BME280;29098;48.184;16.298;2023-11-18T11:14:33;100112.84;;;5.94;79.78
43503;BME280;29098;48.184;16.298;2023-11-18T11:17:07;100142.72;;;5.92;79.83
43503;BME280;29098;48.184;16.298;2023-11-18T11:19:58;100115.66;;;6.02;80.46
43503;BME280;29098;48.184;16.298;2023-11-18T11:25:26;100152.00;;;6.37;79.52
43503;BME280;29098;48.184;16.298;2023-11-18T11:28:16;100116.94;;;6.18;79.25
43503;BME280;29098;48.184;16.298;2023-11-18T11:30:46;100099.59;;;6.47;78.93
43503;BME280;29098;48.184;16.298;2023-11-18T11:33:39;100102.28;;;6.76;77.87
43503;BME280;29098;48.184;16.298;2023-11-18T11:36:11;100126.38;;;7.29;76.92
43503;BME280;29098;48.184;16.298;2023-11-18T11:38:38;100153.19;;;7.71;75.16
43503;BME280;29098;48.184;16.298;2023-11-18T11:41:05;100157.44;;;7.81;74.32
43503;BME280;29098;48.184;16.298;2023-11-18T11:43:34;100137.84;;;7.76;72.91
43503;BME280;29098;48.184;16.298;2023-11-18T11:46:01;100140.25;;;7.59;72.99
43503;BME280;29098;48.184;16.298;2023-11-18T11:48:37;100146.22;;;7.42;71.73
43503;BME280;29098;48.184;16.298;2023-11-18T11:51:46;100122.22;;;7.36;71.37
43503;BME280;29098;48.184;16.298;2023-11-18T11:54:22;100137.53;;;7.41;71.54
43503;BME280;29098;48.184;16.298;2023-11-18T11:56:50;100150.53;;;7.33;71.47
43503;BME280;29098;48.184;16.298;2023-11-18T12:02:21;100158.94;;;7.07;72.92
43503;BME280;29098;48.184;16.298;2023-11-18T12:04:53;100138.38;;;6.92;73.47
43503;BME280;29098;48.184;16.298;2023-11-18T12:07:22;100128.31;;;7.07;73.66
43503;BME280;29098;48.184;16.298;2023-11-18T12:09:58;100151.94;;;7.07;73.44
43503;BME280;29098;48.184;16.298;2023-11-18T12:12:25;100135.78;;;7.02;73.03
43503;BME280;29098;48.184;16.298;2023-11-18T12:14:59;100137.72;;;7.00;73.79
43503;BME280;29098;48.184;16.298;2023-11-18T12:20:42;100124.06;;;6.67;74.82
43503;BME280;29098;48.184;16.298;2023-11-18T12:23:16;100139.06;;;6.75;75.18
43503;BME280;29098;48.184;16.298;2023-11-18T12:25:46;100180.72;;;6.68;75.24
43503;BME280;29098;48.184;16.298;2023-11-18T12:28:15;100139.06;;;6.75;75.29
43503;BME280;29098;48.184;16.298;2023-11-18T12:30:43;100158.63;;;6.51;76.10
43503;BME280;29098;48.184;16.298;2023-11-18T12:33:20;100178.66;;;6.81;75.48
43503;BME280;29098;48.184;16.298;2023-11-18T12:36:47;100165.97;;;6.57;76.43
43503;BME280;29098;48.184;16.298;2023-11-18T12:46:52;100169.84;;;6.72;76.59
43503;BME280;29098;48.184;16.298;2023-11-18T12:49:22;100170.09;;;6.60;76.83
43503;BME280;29098;48.184;16.298;2023-11-18T12:51:52;100152.84;;;6.47;77.06
43503;BME280;29098;48.184;16.298;2023-11-18T12:54:23;100161.66;;;6.46;77.34
43503;BME280;29098;48.184;16.298;2023-11-18T12:56:55;100174.47;;;6.49;77.31
43503;BME280;29098;48.184;16.298;2023-11-18T12:59:21;100156.66;;;6.33;76.70
43503;BME280;29098;48.184;16.298;2023-11-18T13:01:49;100190.56;;;6.35;76.33
43503;BME280;29098;48.184;16.298;2023-11-18T13:04:25;100169.38;;;6.38;75.88
43503;BME280;29098;48.184;16.298;2023-11-18T13:06:52;100162.72;;;6.34;75.29
43503;BME280;29098;48.184;16.298;2023-11-18T13:09:21;100168.47;;;6.27;74.45
43503;BME280;29098;48.184;16.298;2023-11-18T13:12:02;100184.78;;;6.41;74.00
43503;BME280;29098;48.184;16.298;2023-11-18T13:14:34;100184.22;;;6.37;72.82
43503;BME280;29098;48.184;16.298;2023-11-18T13:17:08;100157.75;;;6.30;72.32
43503;BME280;29098;48.184;16.298;2023-11-18T13:19:34;100158.34;;;6.44;71.21
43503;BME280;29098;48.184;16.298;2023-11-18T13:22:04;100137.63;;;6.21;71.45
43503;BME280;29098;48.184;16.298;2023-11-18T13:24:36;100184.75;;;6.31;71.46